Flight Track Log - Related Links

Times and Time Zones

All times are in EDT time to prevent confusion due to time zone crossing. See the AAY805 flight status page for this flight to view local times or setup timezone preferences in your user account.

Time Position Orientation Groundspeed Altitude Reporting Facility
EDT Latitude Longitude Course Direction KTS MPH feet Rate Location/Type
Sun 09:23:41 AM 34.9286 -85.1814 158° South 239 275 4,300  Level Atlanta Center
Sun 09:24:41 AM 34.8619 -85.1475 157° South 262 302 7,100 2,750 Climbing Atlanta Center
Sun 09:25:41 AM 34.7914 -85.1061 154° Southeast 272 313 9,800 1,550 Climbing Atlanta Center
Sun 09:26:41 AM 34.7167 -85.0622 154° Southeast 287 330 10,200 1,250 Climbing Atlanta Center
Sun 09:27:41 AM 34.6272 -85.0106 155° Southeast 318 366 12,300 2,200 Climbing Atlanta Center
Sun 09:28:00 AM 34.4454 -84.8643 158° South  Level FlightAware Approximate
Sun 09:28:41 AM 34.5381 -84.9592 155° Southeast 340 391 14,600  Level Atlanta Center
Sun 09:29:00 AM 34.3438 -84.8135 158° South  Level FlightAware Approximate
Sun 09:29:41 AM 34.4444 -84.9053 155° Southeast 359 413 16,100  Level Atlanta Center
Sun 09:30:41 AM 34.3508 -84.8489 154° Southeast 370 426 17,000 1,000 Climbing Atlanta Center
Sun 09:31:41 AM 34.2533 -84.7928 155° Southeast 375 432 18,100 1,150 Climbing Atlanta Center
Sun 09:32:41 AM 34.1492 -84.7517 162° South 386 444 19,300 1,600 Climbing Atlanta Center
Sun 09:33:41 AM 34.0514 -84.7033 158° South 391 450 21,300 1,900 Climbing Atlanta Center
Sun 09:34:41 AM 33.9578 -84.6425 152° Southeast 385 443 23,100 1,950 Climbing Atlanta Center
Sun 09:35:41 AM 33.8619 -84.5817 152° Southeast 380 437 25,200 2,050 Climbing Atlanta Center
Sun 09:36:41 AM 33.7683 -84.5261 154° Southeast 385 443 27,200 2,050 Climbing Atlanta Center
Sun 09:37:41 AM 33.6725 -84.4656 152° Southeast 385 443 29,300 1,550 Climbing Atlanta Center
Sun 09:38:41 AM 33.5892 -84.4128 152° Southeast 385 443 30,300 800 Climbing Atlanta Center
Sun 09:39:41 AM 33.4911 -84.3528 153° Southeast 385 443 30,900 550 Climbing Atlanta Center
Sun 09:40:41 AM 33.3892 -84.2875 152° Southeast 396 456 31,400 550 Climbing Atlanta Center
Sun 09:41:41 AM 33.2786 -84.2203 153° Southeast 421 484 32,000 1,000 Climbing Atlanta Center
Sun 09:42:41 AM 33.1681 -84.1506 152° Southeast 438 504 33,400 1,400 Climbing Atlanta Center
Sun 09:43:41 AM 33.0469 -84.0786 154° Southeast 438 504 34,800 1,000 Climbing Atlanta Center
Sun 09:44:41 AM 32.9364 -84.0067 151° Southeast 443 510 35,400 600 Climbing Atlanta Center
Sun 09:45:41 AM 32.8383 -83.9450 152° Southeast 452 520 36,000 300 Climbing Atlanta Center
Sun 09:46:41 AM 32.7256 -83.8783 154° Southeast 445 512 36,000  Level Atlanta Center
Sun 09:47:41 AM 32.6147 -83.8094 152° Southeast 445 512 36,000  Level Atlanta Center
Sun 09:48:41 AM 32.5019 -83.7408 153° Southeast 450 518 36,000  Level Atlanta Center
Sun 09:49:41 AM 32.3911 -83.6722 152° Southeast 445 512 36,000  Level Atlanta Center
Sun 09:51:40 AM 32.1711 -83.5381 153° Southeast 445 512 36,000 -34 Level Jacksonville Center
Sun 09:52:40 AM 32.0628 -83.4736 153° Southeast 445 512 35,900  Descending Jacksonville Center
Sun 09:53:40 AM 31.9547 -83.4067 152° Southeast 445 512 36,000 50 Climbing Jacksonville Center
Sun 09:54:40 AM 31.8464 -83.3400 152° Southeast 445 512 36,000  Level Jacksonville Center
Sun 09:55:40 AM 31.7358 -83.2761 154° Southeast 445 512 36,000  Level Jacksonville Center
Sun 09:56:40 AM 31.6253 -83.2122 154° Southeast 445 512 36,000  Level Jacksonville Center
Sun 09:57:40 AM 31.5064 -83.1411 153° Southeast 445 512 36,000  Level Jacksonville Center
Sun 09:58:40 AM 31.3981 -83.0775 153° Southeast 445 512 36,000  Level Jacksonville Center
Sun 09:59:40 AM 31.2853 -83.0142 154° Southeast 445 512 36,000  Level Jacksonville Center
Sun 10:00:40 AM 31.1811 -82.9483 152° Southeast 445 512 36,000  Level Jacksonville Center
Sun 10:01:40 AM 31.0850 -82.8950 155° Southeast 436 502 36,000 -50 Level Jacksonville Center
Sun 10:02:40 AM 30.9722 -82.8297 154° Southeast 436 502 35,900 -50 Descending Jacksonville Center
Sun 10:03:40 AM 30.8636 -82.7642 153° Southeast 436 502 35,900 -450 Level Jacksonville Center
Sun 10:04:40 AM 30.7508 -82.6992 154° Southeast 442 509 35,000 -965 Descending Jacksonville Center
Sun 10:10:18 AM 30.0746 -82.4610 170° South 423 487 29,500 -982 Descending FlightAware ADS-B
Sun 10:10:59 AM 29.9999 -82.4452 170° South 424 488 28,800 -1,000 Descending FlightAware ADS-B
Sun 10:12:18 AM 29.8426 -82.4120 170° South 418 481 27,500 -893 Descending FlightAware ADS-B
Sun 10:13:00 AM 29.7655 -82.3958 170° South 415 478 27,000 -395 Descending FlightAware ADS-B
Sun 10:13:34 AM 29.7029 -82.3828 170° South 418 481 27,000 -750 Level FlightAware ADS-B
Sun 10:15:16 AM 29.5038 -82.3485 174° South 409 471 25,300 -1,367 Descending FlightAware ADS-B
Sun 10:16:12 AM 29.3996 -82.3359 174° South 397 457 23,400 -1,938 Descending FlightAware ADS-B
Sun 10:16:52 AM 29.3294 -82.3274 174° South 389 448 22,200 -1,890 Descending FlightAware ADS-B
Sun 10:19:51 AM 29.0205 -82.2907 174° South 367 422 16,500 -1,420 Descending FlightAware ADS-B
Sun 10:24:58 AM 28.5559 -82.2835 240° Southwest 292 336 10,700 -1,139 Descending FlightAware ADS-B
Sun 10:25:23 AM 28.5519 -82.2934 256° West 288 331 10,200 -636 Descending FlightAware ADS-B
Sun 10:26:04 AM 28.5328 -82.3719 256° West 289 333 10,000 -169 Descending Miami Center
Sun 10:26:34 AM 28.5167 -82.4333 253° West 286 329 10,000 -867 Level Tampa TRACON
Sun 10:27:34 AM 28.5000 -82.5167 257° West 286 329 8,700 -1,400 Descending Tampa TRACON
Sun 10:28:34 AM 28.4833 -82.6000 257° West 280 322 7,200 -1,400 Descending Tampa TRACON
Sun 10:29:34 AM 28.4167 -82.6500 213° Southwest 272 313 5,900 -1,150 Descending Tampa TRACON
Sun 10:30:34 AM 28.3667 -82.7167 230° Southwest 266 306 4,900 -1,000 Descending Tampa TRACON
Sun 10:31:34 AM 28.3167 -82.7500 210° Southwest 261 300 3,900 -800 Descending Tampa TRACON
Sun 10:32:34 AM 28.2500 -82.7333 168° South 227 261 3,300 -350 Descending Tampa TRACON
Sun 10:33:34 AM 28.1833 -82.7333 180° South 185 213 3,200 -286 Descending Tampa TRACON
Sun 10:34:40 AM 28.1333 -82.7333 180° South 181 208 2,700 -450 Descending Tampa TRACON
Sun 10:35:34 AM 28.0833 -82.7167 164° South 180 207 2,300 -470 Descending Tampa TRACON
Sun 10:36:35 AM 28.0500 -82.7167 180° South 165 190 1,800 -496 Descending Tampa TRACON
Sun 10:37:35 AM 28.0000 -82.7000 164° South 133 153 1,300 -450 Descending Tampa TRACON
Sun 10:38:35 AM 27.9667 -82.7000 180° South 146 168 900 -400 Descending Tampa TRACON
Sun 10:41:00 AM 27.9100 -82.6875 169° South  Level Estimated
Sun 10:48:00 AM 27.9100 -82.6875 North  Level Estimated

Login

Don't have an account? Register now (free) for customized features, flight alerts, and more!